• Join FlightAware (Why Join?)
  • Login
  • US Flag 
02:59PM EDT


 

Airport Tracker/Info


-or-


 

Live Flight TrackerFlight Track Log ✈ N888FM ✈ 29-Jul-2014 ✈ KHTO - KBGM

Flight Track Log - Related Links

Times and Time Zones

All times are in EDT time to prevent confusion due to time zone crossing. See the N888FM flight status page for this flight to view local times or setup timezone preferences in your user account.

Time Position Orientation Groundspeed Altitude Reporting Facility
EDT Latitude Longitude Course Direction KTS MPH feet Rate Location/Type
11:59AM 40.9500 -72.3667 270° West 192 221 5,700  Level New York TRACON
12:00PM 40.9500 -72.4333 270° West 190 219 7,100 1,200 Climbing New York TRACON
12:01PM 40.9500 -72.5000 270° West 208 239 8,100 480 Climbing New York TRACON
12:02PM 40.9333 -72.5833 255° West 239 275 8,100  Level New York TRACON
12:03PM 40.9167 -72.6833 258° West 243 280 8,100  Level New York TRACON
12:04PM 40.9000 -72.7667 255° West 244 281 8,100  Level New York TRACON
12:05PM 40.8833 -72.8500 255° West 242 278 8,100  Level New York TRACON
12:06PM 40.8667 -72.9333 255° West 241 277 8,100  Level New York TRACON
12:07PM 40.8500 -73.0333 258° West 241 277 8,100  Level New York TRACON
12:08PM 40.8333 -73.1167 255° West 248 285 8,100 240 Level New York TRACON
12:09PM 40.8167 -73.2000 255° West 237 273 8,600 1,020 Climbing New York TRACON
12:10PM 40.8167 -73.2833 270° West 204 235 10,100 720 Climbing New York TRACON
12:11PM 40.8167 -73.3667 270° West 239 275 10,100  Level New York TRACON
12:12PM 40.8333 -73.4667 282° West 256 295 10,100 300 Level New York TRACON
12:13PM 40.8667 -73.5167 311° West 270 311 10,800 480 Climbing New York TRACON
12:14PM 40.9500 -73.5333 351° North 279 321 11,100 180 Climbing New York TRACON
12:15PM 41.0167 -73.5667 339° North 286 329 11,200 480 Climbing New York TRACON
12:16PM 41.0500 -73.6167 311° West 257 296 12,100 720 Climbing New York TRACON
12:17PM 41.1000 -73.7000 309° West 256 295 12,600 720 Climbing New York TRACON
12:18PM 41.1333 -73.7833 298° West 243 280 13,600 720 Climbing New York TRACON
12:19PM 41.1667 -73.8500 304° West 244 281 14,100 240 Climbing New York TRACON
12:20PM 41.1886 -73.9058 298° West 263 303 14,000 -120 Descending New York Center
12:21PM 41.2403 -74.0050 305° West 274 315 14,000  Level New York Center
12:22PM 41.2717 -74.0753 301° West 274 315 14,000  Level New York Center
12:23PM 41.3169 -74.1658 304° West 279 321 14,000  Level New York Center
12:24PM 41.3503 -74.2394 301° West 279 321 14,000  Level New York Center
12:25PM 41.3992 -74.3389 303° West 279 321 14,000  Level New York Center
12:26PM 41.4303 -74.4125 299° West 284 327 14,000 -60 Level New York Center
12:27PM 41.4711 -74.5086 300° West 279 321 13,900 -60 Descending New York Center
12:28PM 41.5061 -74.5883 300° West 279 321 13,900  Level New York Center
12:29PM 41.5486 -74.6850 300° West 274 315 13,900  Level New York Center
12:30PM 41.5833 -74.7644 300° West 274 315 13,900  Level New York Center
12:31PM 41.6239 -74.8614 299° West 274 315 13,900  Level New York Center
12:32PM 41.6644 -74.9556 300° West 274 315 14,000  Climbing New York Center
12:33PM 41.7028 -75.0439 300° West 274 315 14,000  Level New York Center
12:34PM 41.7375 -75.1239 300° West 274 315 14,000  Level New York Center
12:35PM 41.7775 -75.2211 299° West 274 315 14,000  Level New York Center
12:36PM 41.8156 -75.3128 299° West 274 315 14,000 -420 Level New York Center
12:37PM 41.8517 -75.4044 298° West 274 315 13,200 -1,200 Descending New York Center
12:38PM 41.8861 -75.4819 301° West 274 315 11,700 -1,500 Descending New York Center
12:39PM 41.9181 -75.5650 297° West 262 302 10,300 -1,560 Descending New York Center
12:40PM 41.9061 -75.6589 260° West 233 268 8,600 -1,500 Descending New York Center
12:41PM 41.9075 -75.7258 272° West 228 262 7,300 -1,560 Descending New York Center
12:42PM 41.9514 -75.7711 323° Northwest 167 192 5,600 -1,620 Descending New York Center
12:43PM 41.9936 -75.8078 327° Northwest 167 192 4,100 -840 Descending New York Center
12:44PM 42.0339 -75.8386 330° Northwest 172 198 4,000 -60 Descending New York Center
12:45PM 42.0700 -75.8667 330° Northwest 172 198 4,000 -120 Level New York Center
12:46PM 42.1064 -75.8972 328° Northwest 172 198 3,800 -540 Descending New York Center
12:47PM 42.1406 -75.9253 329° Northwest 157 181 3,000 -840 Descending New York Center
12:48PM 42.1747 -75.9531 329° Northwest 146 168 2,200 -540 Descending New York Center
12:49PM 42.2064 -75.9864 322° Northwest 146 168 2,000 3,360 Descending New York Center
12:50PM 42.2364 -76.0167 323° Northwest 146 168 9,000 3,420 Climbing New York Center
12:51PM 42.2661 -76.0472 323° Northwest 146 168 9,000  Level New York Center
12:53PM 42.2084 -75.9796 90° East  Level Estimated
01:00PM 42.2084 -75.9796 90° East  Level Estimated
01:01PM 42.2084 -75.9796 90° East  Level Estimated
01:02PM 42.2084 -75.9796 90° East  Level Estimated
01:03PM 42.2084 -75.9796 90° East  Level Estimated
01:04PM 42.2084 -75.9796 90° East  Level Estimated